KGXY/GXY METAR and TAF weather

Enter ICAO airport designator
Station Type Date Time Source
KGXY METAR 2021/05/12 02:21 UTC NOAA

KGXY 120221Z 14007KT 10SM FEW022 OVC035 07/03 A3029 RMK AO2


Station Type Date Time Source
KGXY Decoded METAR 2021/05/12 02:21 UTC NOAA

Greeley, Greeley-Weld County Airport, CO, United States (KGXY) 40-26N 104-38W
May 11, 2021 - 10:21 PM EDT / 2021.05.12 0221 UTC
Wind: from the SE (140 degrees) at 8 MPH (7 KT):0
Visibility: 10 mile(s):0
Sky conditions: overcast
Temperature: 44 F (7 C)
Dew Point: 37 F (3 C)
Relative Humidity: 75%
Pressure (altimeter): 30.29 in. Hg (1025 hPa)
ob: KGXY 120221Z 14007KT 10SM FEW022 OVC035 07/03 A3029 RMK AO2
cycle: 2

Station Type Date Time Source
KGXY TAF UTC NOAA

Error!

Example: see airport list